Morven, Georgia
Current Conditions -  °F | °C
As of 4:27 PM on Monday 24 Nov 2014 (Local Time) from KVLD Reporting Station
Light Rain Light Rain  
Wind Chill: 68°   Ceiling: 6000
Heat Index: 68°   Visibility: 2.5mi
Dew Point: 67°   Wind: 0mph
Humidity: 96%   Direction: NA
Pressure: 29.89"   Gusts: NA
Location:  30.94°N, 83.5°W
Report Text: KVLD 242127Z AUTO 00000KT 2 1/2SM -RA BR OVC060 20/19 A2989 RMK AO2 LTG DSNT S-NW P0004 T02000194
Loading
Personal Weather Stations






























Interactive Weather Map New forecast layout! Learn more

10-Day Weather Forecast

Advertisements
Track Severe Weather on mobile